sensor_id;sensor_type;location;lat;lon;timestamp;pressure;altitude;pressure_sealevel;temperature;humidity
11124;BME280;5616;42.692;23.312;2023-02-02T00:00:58;95218.59;;;6.45;56.08
11124;BME280;5616;42.692;23.312;2023-02-02T00:03:26;95222.44;;;6.49;56.71
11124;BME280;5616;42.692;23.312;2023-02-02T00:05:54;95228.69;;;6.47;55.58
11124;BME280;5616;42.692;23.312;2023-02-02T00:08:23;95218.06;;;6.42;56.29
11124;BME280;5616;42.692;23.312;2023-02-02T00:10:50;95208.97;;;6.47;54.49
11124;BME280;5616;42.692;23.312;2023-02-02T00:13:17;95215.84;;;6.47;54.52
11124;BME280;5616;42.692;23.312;2023-02-02T00:15:43;95212.34;;;6.48;54.90
11124;BME280;5616;42.692;23.312;2023-02-02T00:18:10;95223.91;;;6.52;55.12
11124;BME280;5616;42.692;23.312;2023-02-02T00:20:37;95221.28;;;6.44;55.44
11124;BME280;5616;42.692;23.312;2023-02-02T00:23:04;95217.31;;;6.49;54.72
11124;BME280;5616;42.692;23.312;2023-02-02T00:25:32;95216.44;;;6.41;54.94
11124;BME280;5616;42.692;23.312;2023-02-02T00:27:59;95223.19;;;6.42;55.42
11124;BME280;5616;42.692;23.312;2023-02-02T00:30:26;95220.97;;;6.47;55.74
11124;BME280;5616;42.692;23.312;2023-02-02T00:32:52;95226.72;;;6.41;55.22
11124;BME280;5616;42.692;23.312;2023-02-02T00:35:19;95228.00;;;6.19;55.70
11124;BME280;5616;42.692;23.312;2023-02-02T00:37:46;95239.94;;;6.28;56.65
11124;BME280;5616;42.692;23.312;2023-02-02T00:40:13;95239.94;;;6.28;56.05
11124;BME280;5616;42.692;23.312;2023-02-02T00:42:42;95239.78;;;6.30;56.76
11124;BME280;5616;42.692;23.312;2023-02-02T00:45:13;95235.09;;;6.25;55.83
11124;BME280;5616;42.692;23.312;2023-02-02T00:47:46;95241.50;;;6.21;55.24
11124;BME280;5616;42.692;23.312;2023-02-02T00:50:14;95236.81;;;6.16;56.25
11124;BME280;5616;42.692;23.312;2023-02-02T00:52:42;95237.78;;;6.15;56.24
11124;BME280;5616;42.692;23.312;2023-02-02T00:55:09;95243.72;;;6.16;56.73
11124;BME280;5616;42.692;23.312;2023-02-02T00:57:36;95237.78;;;6.15;57.42
11124;BME280;5616;42.692;23.312;2023-02-02T01:00:07;95228.13;;;6.09;57.88
11124;BME280;5616;42.692;23.312;2023-02-02T01:02:34;95226.47;;;6.00;58.93
11124;BME280;5616;42.692;23.312;2023-02-02T01:05:02;95218.38;;;5.87;60.09
11124;BME280;5616;42.692;23.312;2023-02-02T01:07:29;95215.06;;;5.95;59.79
11124;BME280;5616;42.692;23.312;2023-02-02T01:09:56;95209.94;;;5.95;59.28
11124;BME280;5616;42.692;23.312;2023-02-02T01:12:23;95214.25;;;5.94;59.35
11124;BME280;5616;42.692;23.312;2023-02-02T01:14:50;95209.13;;;5.94;59.53
11124;BME280;5616;42.692;23.312;2023-02-02T01:17:18;95203.53;;;5.99;60.60
11124;BME280;5616;42.692;23.312;2023-02-02T01:19:45;95202.25;;;5.95;60.21
11124;BME280;5616;42.692;23.312;2023-02-02T01:22:12;95203.00;;;5.95;60.50
11124;BME280;5616;42.692;23.312;2023-02-02T01:24:39;95204.81;;;5.95;61.24
11124;BME280;5616;42.692;23.312;2023-02-02T01:27:05;95208.00;;;5.97;60.38
11124;BME280;5616;42.692;23.312;2023-02-02T01:29:32;95199.31;;;5.90;60.99
11124;BME280;5616;42.692;23.312;2023-02-02T01:31:59;95196.66;;;5.82;61.46
11124;BME280;5616;42.692;23.312;2023-02-02T01:34:27;95191.66;;;5.80;62.04
11124;BME280;5616;42.692;23.312;2023-02-02T01:36:54;95197.44;;;5.82;61.35
11124;BME280;5616;42.692;23.312;2023-02-02T01:39:21;95194.53;;;5.77;60.90
11124;BME280;5616;42.692;23.312;2023-02-02T01:41:48;95187.00;;;5.76;62.12
11124;BME280;5616;42.692;23.312;2023-02-02T01:44:59;95195.56;;;5.67;62.10
11124;BME280;5616;42.692;23.312;2023-02-02T01:47:29;95185.19;;;5.68;62.06
11124;BME280;5616;42.692;23.312;2023-02-02T01:49:58;95186.22;;;5.57;63.36
11124;BME280;5616;42.692;23.312;2023-02-02T01:52:26;95175.03;;;5.23;63.94
11124;BME280;5616;42.692;23.312;2023-02-02T01:54:57;95167.56;;;4.94;64.52
11124;BME280;5616;42.692;23.312;2023-02-02T01:57:29;95174.09;;;4.79;66.05
11124;BME280;5616;42.692;23.312;2023-02-02T01:59:58;95171.22;;;4.65;66.59
11124;BME280;5616;42.692;23.312;2023-02-02T02:02:26;95161.16;;;4.63;66.75
11124;BME280;5616;42.692;23.312;2023-02-02T02:04:57;95165.00;;;4.67;66.46
11124;BME280;5616;42.692;23.312;2023-02-02T02:07:25;95158.91;;;4.78;65.95
11124;BME280;5616;42.692;23.312;2023-02-02T02:09:52;95166.56;;;4.78;66.23
11124;BME280;5616;42.692;23.312;2023-02-02T02:12:19;95160.16;;;4.74;66.67
11124;BME280;5616;42.692;23.312;2023-02-02T02:14:48;95167.41;;;4.69;66.48
11124;BME280;5616;42.692;23.312;2023-02-02T02:17:51;95173.41;;;4.60;67.04
11124;BME280;5616;42.692;23.312;2023-02-02T02:27:23;95172.09;;;4.46;67.22
11124;BME280;5616;42.692;23.312;2023-02-02T02:30:10;95176.53;;;4.17;68.88
11124;BME280;5616;42.692;23.312;2023-02-02T02:32:49;95172.47;;;4.24;68.64
11124;BME280;5616;42.692;23.312;2023-02-02T02:35:25;95171.13;;;4.20;69.26
11124;BME280;5616;42.692;23.312;2023-02-02T02:37:59;95169.25;;;4.22;68.62
11124;BME280;5616;42.692;23.312;2023-02-02T02:40:33;95164.88;;;4.32;69.66
11124;BME280;5616;42.692;23.312;2023-02-02T02:43:06;95167.16;;;4.35;68.57
11124;BME280;5616;42.692;23.312;2023-02-02T02:45:36;95171.78;;;4.31;69.33
11124;BME280;5616;42.692;23.312;2023-02-02T02:48:04;95167.22;;;4.25;68.67
11124;BME280;5616;42.692;23.312;2023-02-02T02:50:35;95166.38;;;4.35;67.64
11124;BME280;5616;42.692;23.312;2023-02-02T02:53:04;95163.56;;;4.28;68.73
11124;BME280;5616;42.692;23.312;2023-02-02T02:55:38;95175.16;;;4.22;68.79
11124;BME280;5616;42.692;23.312;2023-02-02T02:58:12;95168.78;;;4.36;68.32
11124;BME280;5616;42.692;23.312;2023-02-02T03:00:58;95165.56;;;4.34;68.15
11124;BME280;5616;42.692;23.312;2023-02-02T03:03:34;95164.34;;;4.38;67.91
11124;BME280;5616;42.692;23.312;2023-02-02T03:06:11;95153.06;;;4.31;68.25
11124;BME280;5616;42.692;23.312;2023-02-02T03:08:44;95164.06;;;4.41;68.17
11124;BME280;5616;42.692;23.312;2023-02-02T03:11:12;95165.53;;;4.44;68.02
11124;BME280;5616;42.692;23.312;2023-02-02T03:13:41;95164.59;;;4.45;67.86
11124;BME280;5616;42.692;23.312;2023-02-02T03:16:09;95170.47;;;4.45;68.61
11124;BME280;5616;42.692;23.312;2023-02-02T03:18:38;95157.38;;;4.30;67.99
11124;BME280;5616;42.692;23.312;2023-02-02T03:21:05;95159.69;;;4.24;69.61
11124;BME280;5616;42.692;23.312;2023-02-02T03:23:32;95156.16;;;4.35;68.96
11124;BME280;5616;42.692;23.312;2023-02-02T03:25:59;95160.38;;;4.26;69.20
11124;BME280;5616;42.692;23.312;2023-02-02T03:28:26;95160.88;;;4.29;68.53
11124;BME280;5616;42.692;23.312;2023-02-02T03:30:54;95156.81;;;4.37;68.75
11124;BME280;5616;42.692;23.312;2023-02-02T03:33:21;95144.59;;;4.30;66.97
11124;BME280;5616;42.692;23.312;2023-02-02T03:35:50;95155.56;;;4.13;68.13
11124;BME280;5616;42.692;23.312;2023-02-02T03:38:17;95160.63;;;4.23;68.02
11124;BME280;5616;42.692;23.312;2023-02-02T03:40:44;95166.13;;;4.28;68.16
11124;BME280;5616;42.692;23.312;2023-02-02T03:43:11;95156.84;;;4.27;68.33
11124;BME280;5616;42.692;23.312;2023-02-02T03:45:37;95161.94;;;4.27;69.55
11124;BME280;5616;42.692;23.312;2023-02-02T03:48:05;95164.38;;;4.28;68.64
11124;BME280;5616;42.692;23.312;2023-02-02T03:50:33;95174.34;;;4.31;68.56
11124;BME280;5616;42.692;23.312;2023-02-02T03:53:01;95160.84;;;4.39;68.67
11124;BME280;5616;42.692;23.312;2023-02-02T03:55:28;95174.59;;;4.28;68.97
11124;BME280;5616;42.692;23.312;2023-02-02T03:57:55;95171.91;;;4.30;69.05
11124;BME280;5616;42.692;23.312;2023-02-02T04:00:22;95175.81;;;4.24;69.08
11124;BME280;5616;42.692;23.312;2023-02-02T04:02:48;95181.34;;;4.20;69.91
11124;BME280;5616;42.692;23.312;2023-02-02T04:05:15;95174.94;;;4.16;70.38
11124;BME280;5616;42.692;23.312;2023-02-02T04:07:42;95181.78;;;4.15;69.59
11124;BME280;5616;42.692;23.312;2023-02-02T04:10:11;95179.78;;;4.09;70.68
11124;BME280;5616;42.692;23.312;2023-02-02T04:12:37;95185.63;;;3.92;70.41
11124;BME280;5616;42.692;23.312;2023-02-02T04:15:05;95182.41;;;3.81;70.83
11124;BME280;5616;42.692;23.312;2023-02-02T04:17:32;95184.13;;;3.80;70.75
11124;BME280;5616;42.692;23.312;2023-02-02T04:19:59;95186.31;;;3.65;71.18
11124;BME280;5616;42.692;23.312;2023-02-02T04:22:26;95189.00;;;3.74;71.76
11124;BME280;5616;42.692;23.312;2023-02-02T04:24:53;95184.94;;;3.81;71.35
11124;BME280;5616;42.692;23.312;2023-02-02T04:27:21;95189.25;;;3.61;71.15
11124;BME280;5616;42.692;23.312;2023-02-02T04:29:48;95190.50;;;3.47;71.74
11124;BME280;5616;42.692;23.312;2023-02-02T04:32:16;95186.47;;;3.54;72.74
11124;BME280;5616;42.692;23.312;2023-02-02T04:34:43;95177.88;;;3.55;72.40
11124;BME280;5616;42.692;23.312;2023-02-02T04:37:10;95173.41;;;3.67;71.57
11124;BME280;5616;42.692;23.312;2023-02-02T04:39:37;95176.38;;;3.62;71.63
11124;BME280;5616;42.692;23.312;2023-02-02T04:42:04;95180.25;;;3.66;72.15
11124;BME280;5616;42.692;23.312;2023-02-02T04:44:32;95188.19;;;3.63;71.51
11124;BME280;5616;42.692;23.312;2023-02-02T04:46:59;95190.47;;;3.66;72.54
11124;BME280;5616;42.692;23.312;2023-02-02T04:49:26;95190.88;;;3.62;72.04
11124;BME280;5616;42.692;23.312;2023-02-02T04:51:52;95197.34;;;3.56;72.96
11124;BME280;5616;42.692;23.312;2023-02-02T04:54:19;95200.56;;;3.58;72.49
11124;BME280;5616;42.692;23.312;2023-02-02T04:56:46;95192.22;;;3.56;71.71
11124;BME280;5616;42.692;23.312;2023-02-02T04:59:13;95190.38;;;3.39;73.25
11124;BME280;5616;42.692;23.312;2023-02-02T05:01:41;95199.09;;;3.37;73.88
11124;BME280;5616;42.692;23.312;2023-02-02T05:04:09;95191.16;;;3.30;74.05
11124;BME280;5616;42.692;23.312;2023-02-02T05:06:36;95187.69;;;3.31;73.40
11124;BME280;5616;42.692;23.312;2023-02-02T05:09:03;95194.78;;;3.37;73.33
11124;BME280;5616;42.692;23.312;2023-02-02T05:11:30;95197.19;;;3.20;73.56
11124;BME280;5616;42.692;23.312;2023-02-02T05:13:57;95197.59;;;3.05;73.05
11124;BME280;5616;42.692;23.312;2023-02-02T05:16:23;95198.94;;;3.19;73.94
11124;BME280;5616;42.692;23.312;2023-02-02T05:18:53;95176.13;;;3.18;73.29
11124;BME280;5616;42.692;23.312;2023-02-02T05:21:21;95194.50;;;3.12;72.84
11124;BME280;5616;42.692;23.312;2023-02-02T05:23:48;95187.63;;;2.93;74.83
11124;BME280;5616;42.692;23.312;2023-02-02T05:26:19;95189.53;;;3.10;74.12
11124;BME280;5616;42.692;23.312;2023-02-02T05:28:46;95181.88;;;3.20;72.78
11124;BME280;5616;42.692;23.312;2023-02-02T05:31:15;95191.97;;;3.21;73.24
11124;BME280;5616;42.692;23.312;2023-02-02T05:33:41;95188.06;;;3.17;73.43
11124;BME280;5616;42.692;23.312;2023-02-02T05:36:10;95202.84;;;3.23;72.72
11124;BME280;5616;42.692;23.312;2023-02-02T05:38:37;95200.31;;;3.23;72.50
11124;BME280;5616;42.692;23.312;2023-02-02T05:41:04;95204.03;;;3.19;72.67
11124;BME280;5616;42.692;23.312;2023-02-02T05:43:31;95205.09;;;3.17;71.99
11124;BME280;5616;42.692;23.312;2023-02-02T05:45:59;95207.81;;;3.15;72.71
11124;BME280;5616;42.692;23.312;2023-02-02T05:48:26;95199.09;;;3.08;72.79
11124;BME280;5616;42.692;23.312;2023-02-02T05:50:58;95208.16;;;2.91;74.62
11124;BME280;5616;42.692;23.312;2023-02-02T05:53:28;95198.38;;;2.96;74.14
11124;BME280;5616;42.692;23.312;2023-02-02T05:55:55;95207.00;;;3.05;72.72
11124;BME280;5616;42.692;23.312;2023-02-02T05:58:22;95208.19;;;3.01;73.47
11124;BME280;5616;42.692;23.312;2023-02-02T06:00:50;95211.69;;;3.00;72.73
11124;BME280;5616;42.692;23.312;2023-02-02T06:03:17;95208.50;;;2.68;74.09
11124;BME280;5616;42.692;23.312;2023-02-02T06:05:43;95205.88;;;2.88;73.86
11124;BME280;5616;42.692;23.312;2023-02-02T06:08:10;95205.47;;;2.93;73.02
11124;BME280;5616;42.692;23.312;2023-02-02T06:10:39;95219.34;;;3.09;73.74
11124;BME280;5616;42.692;23.312;2023-02-02T06:13:06;95224.69;;;3.06;73.44
11124;BME280;5616;42.692;23.312;2023-02-02T06:15:34;95212.88;;;2.96;73.79
11124;BME280;5616;42.692;23.312;2023-02-02T06:18:01;95215.06;;;3.10;73.30
11124;BME280;5616;42.692;23.312;2023-02-02T06:20:28;95201.63;;;3.18;72.58
11124;BME280;5616;42.692;23.312;2023-02-02T06:22:55;95222.03;;;3.27;71.64
11124;BME280;5616;42.692;23.312;2023-02-02T06:25:22;95223.53;;;3.20;72.33
11124;BME280;5616;42.692;23.312;2023-02-02T06:27:54;95233.06;;;3.28;71.25
11124;BME280;5616;42.692;23.312;2023-02-02T06:30:21;95238.84;;;3.49;70.37
11124;BME280;5616;42.692;23.312;2023-02-02T06:32:48;95237.09;;;3.59;70.14
11124;BME280;5616;42.692;23.312;2023-02-02T06:35:15;95237.91;;;3.69;70.44
11124;BME280;5616;42.692;23.312;2023-02-02T06:37:42;95233.75;;;3.78;68.47
11124;BME280;5616;42.692;23.312;2023-02-02T06:40:10;95242.75;;;3.91;69.00
11124;BME280;5616;42.692;23.312;2023-02-02T06:42:38;95243.03;;;3.79;68.83
11124;BME280;5616;42.692;23.312;2023-02-02T06:45:07;95249.31;;;3.94;69.42
11124;BME280;5616;42.692;23.312;2023-02-02T06:47:34;95242.59;;;3.93;69.16
11124;BME280;5616;42.692;23.312;2023-02-02T06:50:01;95235.44;;;4.06;69.44
11124;BME280;5616;42.692;23.312;2023-02-02T06:52:28;95243.78;;;4.17;68.13
11124;BME280;5616;42.692;23.312;2023-02-02T06:54:55;95242.41;;;4.23;68.08
11124;BME280;5616;42.692;23.312;2023-02-02T06:57:21;95236.88;;;4.27;67.46
11124;BME280;5616;42.692;23.312;2023-02-02T06:59:48;95242.38;;;4.42;66.32
11124;BME280;5616;42.692;23.312;2023-02-02T07:02:17;95252.81;;;4.58;66.33
11124;BME280;5616;42.692;23.312;2023-02-02T07:04:43;95248.97;;;4.72;65.79
11124;BME280;5616;42.692;23.312;2023-02-02T07:07:10;95260.28;;;4.79;64.44
11124;BME280;5616;42.692;23.312;2023-02-02T07:09:37;95253.25;;;4.81;64.77
11124;BME280;5616;42.692;23.312;2023-02-02T07:12:04;95251.88;;;4.86;64.70
11124;BME280;5616;42.692;23.312;2023-02-02T07:14:31;95249.81;;;4.90;64.57
11124;BME280;5616;42.692;23.312;2023-02-02T07:16:57;95251.03;;;4.95;64.54
11124;BME280;5616;42.692;23.312;2023-02-02T07:19:26;95252.09;;;5.03;64.14
11124;BME280;5616;42.692;23.312;2023-02-02T07:21:52;95251.28;;;5.20;63.66
11124;BME280;5616;42.692;23.312;2023-02-02T07:24:19;95248.53;;;5.31;63.67
11124;BME280;5616;42.692;23.312;2023-02-02T07:26:46;95261.91;;;5.25;62.61
11124;BME280;5616;42.692;23.312;2023-02-02T07:29:13;95261.78;;;5.26;62.85
11124;BME280;5616;42.692;23.312;2023-02-02T07:31:40;95264.75;;;5.22;63.29
11124;BME280;5616;42.692;23.312;2023-02-02T07:34:07;95266.56;;;5.12;63.81
11124;BME280;5616;42.692;23.312;2023-02-02T07:36:35;95271.84;;;5.10;64.45
11124;BME280;5616;42.692;23.312;2023-02-02T07:39:04;95274.25;;;5.12;64.10
11124;BME280;5616;42.692;23.312;2023-02-02T07:41:33;95262.97;;;5.05;64.14
11124;BME280;5616;42.692;23.312;2023-02-02T07:44:00;95259.94;;;4.91;64.72
11124;BME280;5616;42.692;23.312;2023-02-02T07:46:28;95249.28;;;4.96;64.47
11124;BME280;5616;42.692;23.312;2023-02-02T07:48:55;95252.09;;;5.03;64.25
11124;BME280;5616;42.692;23.312;2023-02-02T07:51:23;95244.78;;;5.08;64.56
11124;BME280;5616;42.692;23.312;2023-02-02T07:53:53;95243.13;;;5.16;64.08
11124;BME280;5616;42.692;23.312;2023-02-02T07:56:21;95235.66;;;5.23;64.18
11124;BME280;5616;42.692;23.312;2023-02-02T07:58:50;95241.44;;;5.25;64.21
11124;BME280;5616;42.692;23.312;2023-02-02T08:01:17;95242.84;;;5.37;63.93
11124;BME280;5616;42.692;23.312;2023-02-02T08:03:47;95232.53;;;5.46;63.79
11124;BME280;5616;42.692;23.312;2023-02-02T08:06:17;95219.44;;;5.49;63.10
11124;BME280;5616;42.692;23.312;2023-02-02T08:08:44;95226.75;;;5.62;63.76
11124;BME280;5616;42.692;23.312;2023-02-02T08:11:13;95230.09;;;5.80;63.52
11124;BME280;5616;42.692;23.312;2023-02-02T08:13:41;95231.78;;;6.07;63.00
11124;BME280;5616;42.692;23.312;2023-02-02T08:16:09;95224.59;;;6.36;61.46
11124;BME280;5616;42.692;23.312;2023-02-02T08:18:37;95226.19;;;6.63;60.97
11124;BME280;5616;42.692;23.312;2023-02-02T08:21:06;95219.53;;;6.78;59.53
11124;BME280;5616;42.692;23.312;2023-02-02T08:23:34;95219.72;;;6.85;58.39
11124;BME280;5616;42.692;23.312;2023-02-02T08:26:05;95215.97;;;6.71;59.32
11124;BME280;5616;42.692;23.312;2023-02-02T08:28:34;95218.53;;;6.71;59.13
11124;BME280;5616;42.692;23.312;2023-02-02T08:31:06;95215.38;;;6.85;58.13
11124;BME280;5616;42.692;23.312;2023-02-02T08:33:33;95213.47;;;6.87;58.81
11124;BME280;5616;42.692;23.312;2023-02-02T08:36:00;95205.50;;;7.06;58.52
11124;BME280;5616;42.692;23.312;2023-02-02T08:38:27;95211.66;;;7.21;58.65
11124;BME280;5616;42.692;23.312;2023-02-02T08:40:54;95205.44;;;7.40;57.84
11124;BME280;5616;42.692;23.312;2023-02-02T08:43:21;95208.50;;;7.52;57.36
11124;BME280;5616;42.692;23.312;2023-02-02T08:45:50;95197.28;;;7.61;56.25
11124;BME280;5616;42.692;23.312;2023-02-02T08:48:17;95195.03;;;7.74;56.62
11124;BME280;5616;42.692;23.312;2023-02-02T08:50:51;95182.81;;;7.84;55.52
11124;BME280;5616;42.692;23.312;2023-02-02T08:53:19;95184.09;;;7.88;54.70
11124;BME280;5616;42.692;23.312;2023-02-02T08:55:46;95176.38;;;7.72;54.30
11124;BME280;5616;42.692;23.312;2023-02-02T08:58:13;95177.53;;;7.45;54.36
11124;BME280;5616;42.692;23.312;2023-02-02T09:00:40;95180.41;;;7.58;54.29
11124;BME280;5616;42.692;23.312;2023-02-02T09:03:08;95181.53;;;7.80;53.77
11124;BME280;5616;42.692;23.312;2023-02-02T09:05:35;95181.84;;;7.85;54.35
11124;BME280;5616;42.692;23.312;2023-02-02T09:08:03;95185.06;;;7.87;54.82
11124;BME280;5616;42.692;23.312;2023-02-02T09:10:33;95175.25;;;7.98;53.17
11124;BME280;5616;42.692;23.312;2023-02-02T09:13:00;95181.19;;;8.15;53.67
11124;BME280;5616;42.692;23.312;2023-02-02T09:15:27;95175.72;;;8.10;53.30
11124;BME280;5616;42.692;23.312;2023-02-02T09:17:54;95167.72;;;7.97;53.63
11124;BME280;5616;42.692;23.312;2023-02-02T09:20:22;95172.22;;;8.03;52.71
11124;BME280;5616;42.692;23.312;2023-02-02T09:22:49;95170.59;;;7.86;53.27
11124;BME280;5616;42.692;23.312;2023-02-02T09:25:15;95175.41;;;8.05;53.60
11124;BME280;5616;42.692;23.312;2023-02-02T09:27:42;95161.09;;;8.19;54.13
11124;BME280;5616;42.692;23.312;2023-02-02T09:30:10;95161.69;;;8.45;52.89
11124;BME280;5616;42.692;23.312;2023-02-02T09:32:37;95159.22;;;8.59;51.80
11124;BME280;5616;42.692;23.312;2023-02-02T09:35:04;95143.94;;;8.66;52.80
11124;BME280;5616;42.692;23.312;2023-02-02T09:37:33;95145.34;;;8.77;51.60
11124;BME280;5616;42.692;23.312;2023-02-02T09:40:00;95138.75;;;8.74;52.59
11124;BME280;5616;42.692;23.312;2023-02-02T09:42:48;95144.34;;;8.78;52.09
11124;BME280;5616;42.692;23.312;2023-02-02T09:45:25;95151.16;;;8.71;53.43
11124;BME280;5616;42.692;23.312;2023-02-02T09:47:55;95113.13;;;8.50;53.23
11124;BME280;5616;42.692;23.312;2023-02-02T09:50:44;95143.47;;;8.63;53.08
11124;BME280;5616;42.692;23.312;2023-02-02T09:53:18;95133.69;;;8.89;51.91
11124;BME280;5616;42.692;23.312;2023-02-02T09:55:49;95132.28;;;9.09;50.50
11124;BME280;5616;42.692;23.312;2023-02-02T09:58:19;95128.34;;;9.21;51.09
11124;BME280;5616;42.692;23.312;2023-02-02T10:00:55;95120.78;;;9.42;49.97
11124;BME280;5616;42.692;23.312;2023-02-02T10:03:30;95132.59;;;9.37;49.99
11124;BME280;5616;42.692;23.312;2023-02-02T10:06:04;95118.16;;;9.28;51.42
11124;BME280;5616;42.692;23.312;2023-02-02T10:08:36;95123.59;;;9.33;50.26
11124;BME280;5616;42.692;23.312;2023-02-02T10:11:19;95120.50;;;9.60;50.27
11124;BME280;5616;42.692;23.312;2023-02-02T10:13:54;95115.25;;;9.68;50.07
11124;BME280;5616;42.692;23.312;2023-02-02T10:16:24;95109.66;;;9.64;48.41
11124;BME280;5616;42.692;23.312;2023-02-02T10:18:56;95091.59;;;9.64;48.86
11124;BME280;5616;42.692;23.312;2023-02-02T10:21:31;95108.97;;;9.85;48.63
11124;BME280;5616;42.692;23.312;2023-02-02T10:24:01;95096.72;;;10.02;48.42
11124;BME280;5616;42.692;23.312;2023-02-02T10:26:35;95096.31;;;9.98;48.65
11124;BME280;5616;42.692;23.312;2023-02-02T10:29:12;95090.25;;;10.06;47.37
11124;BME280;5616;42.692;23.312;2023-02-02T10:31:42;95091.63;;;10.16;47.90
11124;BME280;5616;42.692;23.312;2023-02-02T10:34:16;95084.31;;;10.34;47.71
11124;BME280;5616;42.692;23.312;2023-02-02T10:37:11;95084.97;;;10.22;47.06
11124;BME280;5616;42.692;23.312;2023-02-02T10:42:54;95065.88;;;9.94;47.78
11124;BME280;5616;42.692;23.312;2023-02-02T10:45:43;95047.09;;;10.00;47.07
11124;BME280;5616;42.692;23.312;2023-02-02T10:48:15;95043.38;;;10.17;46.83
11124;BME280;5616;42.692;23.312;2023-02-02T10:50:46;95043.09;;;10.12;47.12
11124;BME280;5616;42.692;23.312;2023-02-02T10:53:15;95026.13;;;10.03;46.58
11124;BME280;5616;42.692;23.312;2023-02-02T10:55:47;95029.66;;;10.02;48.10
11124;BME280;5616;42.692;23.312;2023-02-02T10:58:22;95016.16;;;10.00;47.58
11124;BME280;5616;42.692;23.312;2023-02-02T11:00:52;95017.94;;;10.28;46.81
11124;BME280;5616;42.692;23.312;2023-02-02T11:03:21;95026.81;;;10.40;46.89
11124;BME280;5616;42.692;23.312;2023-02-02T11:05:49;95018.81;;;10.35;46.79
11124;BME280;5616;42.692;23.312;2023-02-02T11:08:35;95025.03;;;10.41;47.23
11124;BME280;5616;42.692;23.312;2023-02-02T11:11:10;95012.38;;;10.46;47.60
11124;BME280;5616;42.692;23.312;2023-02-02T11:13:42;95011.97;;;10.42;45.83
11124;BME280;5616;42.692;23.312;2023-02-02T11:16:21;95014.06;;;10.54;46.29
11124;BME280;5616;42.692;23.312;2023-02-02T11:18:48;95012.16;;;10.62;46.25
11124;BME280;5616;42.692;23.312;2023-02-02T11:21:20;95014.69;;;10.56;46.94
11124;BME280;5616;42.692;23.312;2023-02-02T11:23:53;95009.22;;;10.15;46.99
11124;BME280;5616;42.692;23.312;2023-02-02T11:26:21;94987.44;;;10.17;46.20
11124;BME280;5616;42.692;23.312;2023-02-02T11:28:50;94989.91;;;10.11;46.90
11124;BME280;5616;42.692;23.312;2023-02-02T11:31:32;94988.59;;;10.15;47.22
11124;BME280;5616;42.692;23.312;2023-02-02T11:34:14;94978.72;;;10.18;46.63
11124;BME280;5616;42.692;23.312;2023-02-02T11:37:00;94970.00;;;9.61;47.29
11124;BME280;5616;42.692;23.312;2023-02-02T11:39:27;94974.19;;;9.47;47.10
11124;BME280;5616;42.692;23.312;2023-02-02T11:41:59;94958.28;;;9.58;48.36
11124;BME280;5616;42.692;23.312;2023-02-02T11:44:28;94961.22;;;9.84;47.28
11124;BME280;5616;42.692;23.312;2023-02-02T11:46:59;94965.28;;;9.94;47.71
11124;BME280;5616;42.692;23.312;2023-02-02T11:49:28;94960.06;;;9.87;47.82
11124;BME280;5616;42.692;23.312;2023-02-02T11:51:57;94948.47;;;9.98;47.93
11124;BME280;5616;42.692;23.312;2023-02-02T11:54:26;94953.38;;;10.43;47.29
11124;BME280;5616;42.692;23.312;2023-02-02T11:56:57;94951.84;;;10.49;46.30
11124;BME280;5616;42.692;23.312;2023-02-02T11:59:32;94947.44;;;10.64;46.62
11124;BME280;5616;42.692;23.312;2023-02-02T12:02:29;94954.75;;;10.81;46.04
11124;BME280;5616;42.692;23.312;2023-02-02T12:05:13;94953.06;;;10.31;46.99
11124;BME280;5616;42.692;23.312;2023-02-02T12:07:41;94943.69;;;10.45;46.22
11124;BME280;5616;42.692;23.312;2023-02-02T12:10:15;94947.56;;;10.77;45.74
11124;BME280;5616;42.692;23.312;2023-02-02T12:12:50;94936.75;;;11.16;44.73
11124;BME280;5616;42.692;23.312;2023-02-02T12:15:37;94952.59;;;11.34;45.32
11124;BME280;5616;42.692;23.312;2023-02-02T12:18:16;94953.09;;;11.23;45.34
11124;BME280;5616;42.692;23.312;2023-02-02T12:20:48;94944.03;;;11.05;45.54
11124;BME280;5616;42.692;23.312;2023-02-02T12:23:28;94941.34;;;10.92;45.13
11124;BME280;5616;42.692;23.312;2023-02-02T12:26:09;94939.13;;;10.89;46.37
11124;BME280;5616;42.692;23.312;2023-02-02T12:28:48;94949.34;;;10.97;45.39
11124;BME280;5616;42.692;23.312;2023-02-02T12:31:25;94952.88;;;10.69;44.15
11124;BME280;5616;42.692;23.312;2023-02-02T12:34:02;94955.00;;;10.65;42.58
11124;BME280;5616;42.692;23.312;2023-02-02T12:36:40;94951.94;;;10.55;42.78
11124;BME280;5616;42.692;23.312;2023-02-02T12:39:19;94962.97;;;10.49;43.20
11124;BME280;5616;42.692;23.312;2023-02-02T12:44:51;94945.78;;;10.56;42.64
11124;BME280;5616;42.692;23.312;2023-02-02T12:47:26;94941.25;;;10.58;43.71
11124;BME280;5616;42.692;23.312;2023-02-02T12:50:06;94947.84;;;10.46;42.51
11124;BME280;5616;42.692;23.312;2023-02-02T12:53:08;94947.59;;;10.41;42.73
11124;BME280;5616;42.692;23.312;2023-02-02T12:55:43;94945.81;;;10.41;43.17
11124;BME280;5616;42.692;23.312;2023-02-02T12:58:20;94941.78;;;10.32;44.17
11124;BME280;5616;42.692;23.312;2023-02-02T13:09:36;94937.25;;;10.05;43.15
11124;BME280;5616;42.692;23.312;2023-02-02T13:12:09;94931.31;;;9.75;43.21
11124;BME280;5616;42.692;23.312;2023-02-02T13:14:39;94945.91;;;9.98;42.71
11124;BME280;5616;42.692;23.312;2023-02-02T13:17:11;94946.56;;;10.06;42.10
11124;BME280;5616;42.692;23.312;2023-02-02T13:19:43;94941.53;;;9.98;43.01
11124;BME280;5616;42.692;23.312;2023-02-02T13:22:16;94947.56;;;10.05;42.79
11124;BME280;5616;42.692;23.312;2023-02-02T13:24:47;94941.16;;;10.01;44.46
11124;BME280;5616;42.692;23.312;2023-02-02T13:27:17;94936.25;;;10.06;44.24
11124;BME280;5616;42.692;23.312;2023-02-02T13:29:50;94931.47;;;10.03;44.25
11124;BME280;5616;42.692;23.312;2023-02-02T13:32:22;94932.66;;;10.01;43.39
11124;BME280;5616;42.692;23.312;2023-02-02T13:34:54;94932.19;;;9.97;42.71
11124;BME280;5616;42.692;23.312;2023-02-02T13:37:27;94928.47;;;10.00;42.69
11124;BME280;5616;42.692;23.312;2023-02-02T13:39:58;94937.16;;;9.99;42.67
11124;BME280;5616;42.692;23.312;2023-02-02T13:42:35;94940.75;;;9.98;42.49
11124;BME280;5616;42.692;23.312;2023-02-02T13:45:32;94943.31;;;9.83;43.28
11124;BME280;5616;42.692;23.312;2023-02-02T13:48:12;94938.09;;;9.76;43.00